Time;durP1;ratioP1;P1;durP2;ratioP2;P2;SDS_P1;SDS_P2;PMS_P1;PMS_P2;Temp;Humidity;BMP_temperature;BMP_pressure;BME280_temperature;BME280_humidity;BME280_pressure;Samples;Min_cycle;Max_cycle;Signal;HPM_P1;HPM_P2
2022/12/09 20:46:32;;;;;;;15.27;4.95;;;;;;;7.80;80.71;92933.72;5121680;27;20125;-35
2022/12/09 20:48:58;;;;;;;20.40;5.25;;;;;;;7.55;82.24;92930.69;4941757;27;55668;-35
2022/12/09 20:51:30;;;;;;;14.07;5.85;;;;;;;7.36;83.70;92928.19;5072149;28;20032;-35
2022/12/09 20:53:56;;;;;;;17.95;7.10;;;;;;;7.23;84.58;92925.59;5063949;28;20025;-35
2022/12/09 20:56:23;;;;;;;16.27;6.50;;;;;;;7.21;84.79;92936.34;5058580;28;20874;-36
2022/12/09 20:58:52;;;;;;;10.13;4.47;;;;;;;7.10;85.73;92935.91;5061133;28;20039;-35
2022/12/09 21:01:20;;;;;;;14.55;5.80;;;;;;;6.92;85.30;92893.72;5055829;28;20096;-35
2022/12/09 21:03:46;;;;;;;18.93;6.30;;;;;;;7.12;85.54;92914.16;5055524;28;20029;-35
2022/12/09 21:06:14;;;;;;;15.18;5.13;;;;;;;7.28;86.31;92930.16;5057667;28;20540;-35
2022/12/09 21:08:40;;;;;;;11.80;5.38;;;;;;;7.20;85.31;92921.16;5056304;28;20585;-35
2022/12/09 21:11:16;;;;;;;17.00;5.82;;;;;;;7.10;85.21;92916.69;5063499;28;20024;-35
2022/12/09 21:13:47;;;;;;;9.48;5.25;;;;;;;6.81;86.46;92900.22;5064681;28;20565;-34
2022/12/09 21:16:20;;;;;;;11.82;4.95;;;;;;;6.87;86.48;92919.28;5063207;28;20056;-35
2022/12/09 21:18:47;;;;;;;12.27;4.40;;;;;;;6.91;87.10;92927.91;5058773;28;20408;-35
2022/12/09 21:21:13;;;;;;;11.68;4.90;;;;;;;6.77;87.59;92905.31;5058612;28;20032;-35
2022/12/09 21:23:38;;;;;;;15.63;5.63;;;;;;;6.83;87.91;92903.16;5063130;28;20021;-35
2022/12/09 21:26:06;;;;;;;12.88;7.25;;;;;;;7.01;87.63;92901.47;5062171;28;20453;-34
2022/12/09 21:28:33;;;;;;;10.05;4.88;;;;;;;7.06;87.55;92902.59;5062846;28;20035;-35
2022/12/09 21:31:04;;;;;;;14.63;5.22;;;;;;;6.98;87.06;92886.06;5063090;28;20058;-35
2022/12/09 21:33:29;;;;;;;10.95;4.97;;;;;;;7.06;87.04;92892.31;5061195;28;20020;-35
2022/12/09 21:35:55;;;;;;;9.07;5.45;;;;;;;7.02;87.94;92886.44;5062198;28;20024;-35
2022/12/09 21:38:21;;;;;;;15.05;6.20;;;;;;;7.04;87.99;92888.66;5061207;28;20040;-35
2022/12/09 21:40:47;;;;;;;17.38;5.93;;;;;;;7.06;87.42;92875.13;5064005;28;20107;-35
2022/12/09 21:43:12;;;;;;;15.88;7.47;;;;;;;7.06;87.24;92891.59;5060650;28;20032;-35
2022/12/09 21:45:38;;;;;;;15.07;8.18;;;;;;;7.11;87.11;92877.72;5060131;28;20095;-35
2022/12/09 21:48:07;;;;;;;11.70;6.88;;;;;;;7.05;86.51;92882.63;5062355;28;20090;-35
2022/12/09 21:50:33;;;;;;;11.25;6.20;;;;;;;7.14;86.98;92887.63;5063155;28;20025;-35
2022/12/09 21:52:58;;;;;;;14.27;5.40;;;;;;;7.14;87.30;92898.63;5063173;28;20058;-35
2022/12/09 21:55:24;;;;;;;9.50;5.40;;;;;;;7.20;86.96;92910.19;5061734;28;20025;-34
2022/12/09 21:57:49;;;;;;;15.60;6.03;;;;;;;7.20;86.65;92899.19;5049193;28;20029;-35
2022/12/09 22:00:15;;;;;;;22.13;9.45;;;;;;;7.20;86.90;92892.97;5048315;28;20021;-34
2022/12/09 22:02:42;;;;;;;15.25;6.85;;;;;;;7.16;86.51;92903.56;5048254;28;20021;-35
2022/12/09 22:05:09;;;;;;;12.80;5.70;;;;;;;7.30;87.37;92902.91;5050351;28;20079;-34
2022/12/09 22:07:35;;;;;;;15.05;6.22;;;;;;;7.41;87.52;92899.84;5050292;28;20025;-35
2022/12/09 22:10:00;;;;;;;23.88;6.60;;;;;;;7.44;86.69;92887.81;5049703;28;20040;-34
2022/12/09 22:12:26;;;;;;;13.45;5.90;;;;;;;7.40;86.37;92884.66;5049623;28;20032;-34
2022/12/09 22:14:51;;;;;;;14.63;5.20;;;;;;;7.36;86.20;92875.31;5049806;28;20028;-35
2022/12/09 22:17:17;;;;;;;13.60;6.68;;;;;;;7.06;86.52;92826.44;5043369;28;20029;-34
2022/12/09 22:19:42;;;;;;;9.55;5.93;;;;;;;7.31;86.69;92852.22;5050143;28;20032;-34
2022/12/09 22:22:08;;;;;;;13.73;6.28;;;;;;;7.36;86.85;92858.84;5049678;28;20029;-35
2022/12/09 22:24:34;;;;;;;15.65;6.82;;;;;;;7.36;86.28;92862.28;5048285;28;20033;-35
2022/12/09 22:27:00;;;;;;;12.02;5.25;;;;;;;7.36;86.68;92853.34;5047228;28;20028;-35
2022/12/09 22:29:25;;;;;;;18.40;6.05;;;;;;;7.40;86.67;92856.47;5049789;28;20513;-34
2022/12/09 22:31:51;;;;;;;14.32;4.97;;;;;;;7.42;86.61;92857.41;5048985;28;20180;-34
2022/12/09 22:34:18;;;;;;;11.05;5.88;;;;;;;7.41;86.45;92871.66;5049529;28;20090;-35
2022/12/09 22:36:45;;;;;;;17.52;5.07;;;;;;;7.40;86.12;92857.22;5047811;28;20029;-34
2022/12/09 22:39:14;;;;;;;23.02;5.63;;;;;;;7.55;85.76;92871.00;5048153;28;20028;-35
2022/12/09 22:41:42;;;;;;;8.85;4.53;;;;;;;7.33;85.44;92841.44;5048525;28;20500;-35
2022/12/09 22:44:10;;;;;;;13.75;5.35;;;;;;;7.46;86.02;92870.78;5048664;28;20587;-35
2022/12/09 22:46:35;;;;;;;10.57;6.05;;;;;;;7.10;85.55;92829.59;5049526;28;20032;-35
2022/12/09 22:49:03;;;;;;;28.52;7.63;;;;;;;7.56;85.32;92871.72;5047320;28;20517;-35
2022/12/09 22:51:30;;;;;;;12.68;5.78;;;;;;;7.50;85.31;92851.94;5047737;28;20051;-35
2022/12/09 22:53:57;;;;;;;9.52;5.38;;;;;;;7.61;85.29;92866.09;5051038;28;20013;-35
2022/12/09 22:56:23;;;;;;;9.25;5.38;;;;;;;7.66;85.30;92869.94;5051478;28;20095;-35
2022/12/09 22:58:49;;;;;;;10.98;5.70;;;;;;;7.68;84.89;92866.66;5047899;28;20029;-35
2022/12/09 23:01:17;;;;;;;43.95;8.73;;;;;;;7.54;85.42;92855.78;5048133;28;20083;-36
2022/12/09 23:03:43;;;;;;;19.48;6.68;;;;;;;7.53;85.85;92856.34;5049590;28;20025;-36
2022/12/09 23:06:09;;;;;;;14.70;5.70;;;;;;;7.53;86.40;92848.09;5049632;28;20416;-36
2022/12/09 23:08:36;;;;;;;7.15;4.63;;;;;;;7.62;87.09;92851.06;5050288;28;20108;-35
2022/12/09 23:11:07;;;;;;;11.77;6.00;;;;;;;7.86;86.24;92843.63;5049861;28;20029;-35
2022/12/09 23:13:34;;;;;;;11.00;5.13;;;;;;;8.00;85.13;92858.69;5051240;28;20029;-35
2022/12/09 23:16:00;;;;;;;14.75;5.82;;;;;;;7.99;84.60;92852.44;5050523;28;20493;-35
2022/12/09 23:18:26;;;;;;;20.45;5.57;;;;;;;8.05;84.30;92841.28;5050980;28;20028;-35
2022/12/09 23:20:52;;;;;;;14.30;6.40;;;;;;;7.97;84.94;92848.81;5050757;28;20025;-36
2022/12/09 23:23:18;;;;;;;13.15;5.75;;;;;;;7.94;84.90;92847.13;5048782;28;20072;-35
2022/12/09 23:25:43;;;;;;;13.32;6.30;;;;;;;7.92;84.85;92846.94;5048854;28;20021;-35
2022/12/09 23:28:10;;;;;;;8.32;5.03;;;;;;;8.01;84.89;92838.88;5042469;28;20025;-35
2022/12/09 23:30:36;;;;;;;15.10;5.75;;;;;;;8.02;84.83;92834.88;5050748;28;20021;-36
2022/12/09 23:33:01;;;;;;;9.25;5.22;;;;;;;8.06;84.68;92840.00;5049477;28;20031;-35
2022/12/09 23:35:27;;;;;;;11.23;4.88;;;;;;;8.04;85.16;92826.81;5048045;28;20020;-35
2022/12/09 23:37:52;;;;;;;14.70;5.25;;;;;;;8.08;85.16;92818.94;5048179;28;20032;-35
2022/12/09 23:40:18;;;;;;;10.63;5.53;;;;;;;8.12;84.74;92824.78;5050676;28;20021;-36
2022/12/09 23:42:43;;;;;;;11.68;5.13;;;;;;;8.18;84.77;92816.38;5047852;28;20616;-36
2022/12/09 23:45:09;;;;;;;13.93;5.50;;;;;;;8.20;84.60;92816.56;5047652;28;20052;-35
2022/12/09 23:47:35;;;;;;;11.32;4.55;;;;;;;8.26;84.90;92822.66;5063400;28;20024;-35
2022/12/09 23:50:00;;;;;;;9.70;4.82;;;;;;;8.23;85.29;92821.69;5049865;28;20071;-35
2022/12/09 23:52:25;;;;;;;8.88;4.95;;;;;;;8.29;84.97;92816.06;5046981;28;20025;-35
2022/12/09 23:54:51;;;;;;;12.90;5.57;;;;;;;8.36;84.51;92809.81;5046596;28;20025;-35
2022/12/09 23:57:16;;;;;;;9.27;5.18;;;;;;;8.36;84.94;92798.81;5050392;28;20025;-36
2022/12/09 23:59:42;;;;;;;13.60;5.65;;;;;;;8.32;85.03;92801.19;5046318;28;20414;-35
